Time;durP1;ratioP1;P1;durP2;ratioP2;P2;SDS_P1;SDS_P2;PMS_P1;PMS_P2;Temp;Humidity;BMP_temperature;BMP_pressure;BME280_temperature;BME280_humidity;BME280_pressure;Samples;Min_cycle;Max_cycle;Signal;HPM_P1;HPM_P2
2023/11/24 00:01:01;;;;;;;12.60;2.60;;;;;;;8.94;95.57;101616.59;5071035;28;20033;-88
2023/11/24 00:03:27;;;;;;;23.85;3.30;;;;;;;8.80;97.82;101615.16;5074110;28;20040;-89
2023/11/24 00:05:52;;;;;;;17.05;3.25;;;;;;;8.76;98.41;101616.09;5069491;28;20033;-88
2023/11/24 00:08:17;;;;;;;25.52;3.67;;;;;;;8.65;98.93;101611.09;5076316;28;20028;-89
2023/11/24 00:10:43;;;;;;;20.52;3.22;;;;;;;8.60;98.71;101618.19;5053876;28;20036;-89
2023/11/24 00:13:09;;;;;;;10.05;2.20;;;;;;;8.52;96.86;101619.22;5065597;28;20252;-89
2023/11/24 00:15:36;;;;;;;16.20;2.58;;;;;;;8.50;95.31;101621.00;5068220;28;20075;-89
2023/11/24 00:18:02;;;;;;;8.18;2.00;;;;;;;8.49;95.34;101617.50;5066213;28;20032;-89
2023/11/24 00:20:29;;;;;;;11.60;2.28;;;;;;;8.51;95.24;101615.72;5065543;28;20363;-88
2023/11/24 00:22:55;;;;;;;18.83;2.17;;;;;;;8.44;94.44;101620.22;5076723;28;20036;-88
2023/11/24 00:25:22;;;;;;;14.60;2.53;;;;;;;8.51;94.68;101609.66;5075841;28;20047;-89
2023/11/24 00:27:49;;;;;;;14.35;3.38;;;;;;;8.50;94.40;101614.00;5076117;28;20362;-89
2023/11/24 00:30:14;;;;;;;9.02;1.70;;;;;;;8.53;94.12;101607.84;5070003;28;20035;-89
2023/11/24 00:32:40;;;;;;;10.05;1.48;;;;;;;8.55;93.44;101611.28;5057162;28;20099;-88
2023/11/24 00:35:06;;;;;;;16.13;2.58;;;;;;;8.51;92.38;101613.09;5075505;28;20078;-88
2023/11/24 00:37:32;;;;;;;7.63;2.25;;;;;;;8.55;92.28;101604.34;5075654;28;20343;-89
2023/11/24 00:39:57;;;;;;;11.85;1.92;;;;;;;8.56;92.25;101595.59;5074387;28;20024;-88
2023/11/24 00:42:23;;;;;;;6.63;1.45;;;;;;;8.58;91.88;101596.44;5075469;28;20032;-89
2023/11/24 00:44:49;;;;;;;15.30;1.98;;;;;;;8.56;91.46;101586.94;5074356;28;20036;-88
2023/11/24 00:47:15;;;;;;;8.80;2.10;;;;;;;8.57;92.09;101576.44;5075973;28;20055;-89
2023/11/24 00:49:41;;;;;;;15.05;2.17;;;;;;;8.56;91.71;101579.94;5075748;28;20050;-88
2023/11/24 00:52:06;;;;;;;11.77;2.55;;;;;;;8.55;92.03;101579.97;5058261;28;20032;-88
2023/11/24 00:54:31;;;;;;;22.15;3.00;;;;;;;8.53;91.76;101579.16;5058004;28;20213;-88
2023/11/24 00:56:57;;;;;;;14.45;2.40;;;;;;;8.50;91.68;101574.00;5076201;28;20046;-88
2023/11/24 00:59:22;;;;;;;12.38;1.90;;;;;;;8.49;91.21;101574.88;5075168;28;20270;-89
2023/11/24 01:01:48;;;;;;;16.35;2.03;;;;;;;8.48;90.94;101583.59;5071955;28;20363;-88
2023/11/24 01:04:14;;;;;;;10.05;2.58;;;;;;;8.50;91.35;101603.56;5076494;28;20201;-89
2023/11/24 01:06:39;;;;;;;9.88;1.50;;;;;;;8.39;92.71;101589.84;5075247;28;20331;-88
2023/11/24 01:09:09;;;;;;;12.43;2.20;;;;;;;8.27;93.36;101585.72;5076318;28;20032;-89
2023/11/24 01:11:35;;;;;;;15.23;1.85;;;;;;;8.04;94.52;101576.56;5075404;28;20373;-88
2023/11/24 01:14:00;;;;;;;9.95;1.30;;;;;;;7.95;94.68;101584.56;5057580;28;20032;-89
2023/11/24 01:16:25;;;;;;;10.02;1.88;;;;;;;7.98;95.18;101574.06;5074879;28;20082;-89
2023/11/24 01:18:52;;;;;;;12.20;1.10;;;;;;;7.85;94.83;101580.38;5075467;28;20155;-89
2023/11/24 01:21:17;;;;;;;10.10;1.35;;;;;;;7.82;93.98;101583.03;5075463;28;20040;-89
2023/11/24 01:23:43;;;;;;;8.48;1.52;;;;;;;7.79;93.84;101585.72;5075576;28;20166;-89
2023/11/24 01:26:11;;;;;;;7.05;1.63;;;;;;;7.77;93.22;101575.31;5075221;28;20087;-88
2023/11/24 01:28:38;;;;;;;2.00;0.77;;;;;;;7.84;93.03;101576.03;5062014;28;20035;-88
2023/11/24 01:31:04;;;;;;;6.70;1.63;;;;;;;7.81;93.00;101582.19;5075130;28;20039;-89
2023/11/24 01:33:30;;;;;;;5.60;1.15;;;;;;;7.83;94.33;101593.44;5074791;28;20064;-88
2023/11/24 01:35:56;;;;;;;11.23;1.60;;;;;;;7.86;95.64;101621.25;5074495;28;20090;-89
2023/11/24 01:38:23;;;;;;;10.07;1.25;;;;;;;7.79;98.23;101602.22;5074636;28;20042;-88
2023/11/24 01:40:49;;;;;;;10.95;1.90;;;;;;;7.66;99.09;101616.34;5074417;28;20048;-88
2023/11/24 01:43:15;;;;;;;7.63;1.40;;;;;;;7.63;100.00;101626.81;5074738;28;20039;-88
2023/11/24 01:45:41;;;;;;;7.50;1.05;;;;;;;7.54;100.00;101614.78;5074293;28;20231;-88
2023/11/24 01:48:08;;;;;;;7.03;0.95;;;;;;;7.49;100.00;101596.63;5075225;28;20036;-88
2023/11/24 01:50:33;;;;;;;4.90;1.02;;;;;;;7.52;100.00;101576.63;5056459;28;20044;-88
2023/11/24 01:52:59;;;;;;;6.40;1.10;;;;;;;7.53;100.00;101575.72;5074935;28;20159;-88
2023/11/24 01:55:26;;;;;;;5.15;0.80;;;;;;;7.54;100.00;101574.84;5074982;28;20044;-88
2023/11/24 01:57:55;;;;;;;7.07;0.80;;;;;;;7.54;100.00;101562.66;5074522;28;20328;-88
2023/11/24 02:00:20;;;;;;;8.98;1.45;;;;;;;7.54;100.00;101574.84;5075048;28;20036;-88
2023/11/24 02:02:46;;;;;;;4.35;0.98;;;;;;;7.53;100.00;101563.56;5073356;28;20071;-89
2023/11/24 02:05:12;;;;;;;5.72;1.33;;;;;;;7.54;100.00;101564.41;5059393;28;20424;-88
2023/11/24 02:07:38;;;;;;;6.35;1.02;;;;;;;7.58;100.00;101550.44;5072932;28;20115;-88
2023/11/24 02:10:04;;;;;;;4.35;1.33;;;;;;;7.59;100.00;101560.00;5074799;28;20299;-88
2023/11/24 02:12:29;;;;;;;10.13;1.23;;;;;;;7.54;100.00;101561.81;5073915;28;20040;-88
2023/11/24 02:14:55;;;;;;;13.55;1.45;;;;;;;7.49;100.00;101556.66;5074236;28;20036;-88
2023/11/24 02:17:20;;;;;;;7.63;1.73;;;;;;;7.54;100.00;101556.59;5074234;28;20040;-89
2023/11/24 02:19:46;;;;;;;8.65;1.38;;;;;;;7.61;100.00;101555.59;5074330;28;20036;-88
2023/11/24 02:22:11;;;;;;;8.20;1.35;;;;;;;7.56;100.00;101562.63;5074551;28;20131;-88
2023/11/24 02:24:37;;;;;;;10.27;1.67;;;;;;;7.50;100.00;101556.63;5074039;28;20261;-88
2023/11/24 02:27:05;;;;;;;7.35;0.90;;;;;;;7.53;100.00;101547.03;5074656;28;20184;-88
2023/11/24 02:29:30;;;;;;;3.93;1.00;;;;;;;7.57;100.00;101535.69;5074147;28;20308;-88
2023/11/24 02:31:56;;;;;;;8.57;1.60;;;;;;;7.60;100.00;101531.25;5074225;28;20278;-88
2023/11/24 02:34:21;;;;;;;5.55;0.93;;;;;;;7.67;100.00;101524.22;5074957;28;20034;-89
2023/11/24 02:36:47;;;;;;;10.93;1.30;;;;;;;7.61;98.75;101506.94;5073949;28;20197;-88
2023/11/24 02:39:12;;;;;;;12.32;1.48;;;;;;;7.60;97.67;101512.16;5074349;28;20283;-88
2023/11/24 02:41:38;;;;;;;5.85;1.20;;;;;;;7.61;97.39;101519.97;5055717;28;20469;-88
2023/11/24 02:44:03;;;;;;;16.17;1.45;;;;;;;7.58;97.02;101509.59;5074271;28;20036;-88
2023/11/24 02:46:29;;;;;;;5.28;1.38;;;;;;;7.58;95.72;101503.50;5074380;28;20040;-88
2023/11/24 02:48:54;;;;;;;10.70;1.33;;;;;;;7.55;94.96;101503.56;5074131;28;20036;-88
2023/11/24 02:51:20;;;;;;;9.60;1.42;;;;;;;7.57;94.25;101494.00;5074630;28;20036;-88
2023/11/24 02:53:45;;;;;;;7.40;1.48;;;;;;;7.60;94.01;101499.97;5076380;28;20101;-88
2023/11/24 02:56:12;;;;;;;11.18;1.42;;;;;;;7.59;92.57;101493.06;5078728;28;20047;-88
2023/11/24 02:58:39;;;;;;;7.57;1.42;;;;;;;7.61;91.89;101493.03;5077292;28;20508;-88
2023/11/24 03:01:07;;;;;;;8.00;1.08;;;;;;;7.62;89.59;101492.13;5078583;28;20032;-88
2023/11/24 03:03:32;;;;;;;6.50;1.20;;;;;;;7.67;89.69;101485.09;5078131;28;20036;-88
2023/11/24 03:06:05;;;;;;;11.50;1.77;;;;;;;7.67;89.40;101485.09;5078154;28;20218;-88
2023/11/24 03:08:30;;;;;;;6.68;1.48;;;;;;;7.72;88.65;101483.28;5078161;28;20054;-88
2023/11/24 03:10:55;;;;;;;7.35;1.20;;;;;;;7.73;88.41;101481.53;5078438;28;20048;-88
2023/11/24 03:13:21;;;;;;;9.75;1.45;;;;;;;7.75;88.12;101487.56;5078247;28;20230;-88
2023/11/24 03:15:47;;;;;;;7.70;1.83;;;;;;;7.76;88.53;101481.47;5059660;28;20090;-89
2023/11/24 03:18:12;;;;;;;13.57;1.67;;;;;;;7.76;89.06;101477.09;5078233;28;20036;-88
2023/11/24 03:20:38;;;;;;;6.15;1.08;;;;;;;7.77;88.87;101478.84;5078304;28;20039;-89
2023/11/24 03:23:04;;;;;;;11.23;1.65;;;;;;;7.74;88.17;101471.06;5078516;28;20043;-88
2023/11/24 03:25:30;;;;;;;14.00;1.48;;;;;;;7.73;87.82;101451.13;5060465;28;20028;-86
2023/11/24 03:27:56;;;;;;;5.72;1.05;;;;;;;7.70;87.34;101461.59;5077913;28;20033;-86
2023/11/24 03:30:23;;;;;;;7.15;1.35;;;;;;;7.72;87.16;101474.59;5060182;28;20244;-88
2023/11/24 03:32:48;;;;;;;13.50;1.15;;;;;;;7.72;86.31;101456.34;5077121;28;20036;-88
2023/11/24 03:35:14;;;;;;;5.93;1.23;;;;;;;7.71;85.85;101460.69;5077738;28;20060;-88
2023/11/24 03:37:39;;;;;;;12.63;1.40;;;;;;;7.72;85.26;101444.16;5077263;28;20367;-88
2023/11/24 03:40:05;;;;;;;10.70;1.40;;;;;;;7.72;85.63;101438.94;5077812;28;20059;-88
2023/11/24 03:42:30;;;;;;;8.18;1.30;;;;;;;7.71;86.60;101441.59;5059235;28;20040;-88
2023/11/24 03:44:56;;;;;;;12.60;1.70;;;;;;;7.74;85.89;101439.78;5077534;28;20039;-88
2023/11/24 03:47:21;;;;;;;12.38;1.73;;;;;;;7.77;85.61;101441.47;5077392;28;20039;-88
2023/11/24 03:49:47;;;;;;;5.60;1.35;;;;;;;7.78;86.02;101446.63;5077120;28;20024;-88
2023/11/24 03:52:12;;;;;;;9.55;0.95;;;;;;;7.80;87.44;101460.50;5077345;28;20036;-88
2023/11/24 03:54:38;;;;;;;5.07;1.05;;;;;;;7.77;89.04;101441.47;5058670;28;20032;-88
2023/11/24 03:57:04;;;;;;;11.10;1.70;;;;;;;7.75;90.52;101441.50;5077768;28;20319;-88
2023/11/24 03:59:29;;;;;;;7.55;1.30;;;;;;;7.73;91.09;101440.69;5076331;28;20063;-88
2023/11/24 04:01:55;;;;;;;5.35;1.27;;;;;;;7.71;91.79;101437.22;5076232;28;20041;-88
2023/11/24 04:04:20;;;;;;;6.50;1.30;;;;;;;7.73;92.04;101451.13;5076862;28;20051;-88
2023/11/24 04:06:46;;;;;;;8.45;1.23;;;;;;;7.71;91.10;101445.03;5076387;28;20043;-88
2023/11/24 04:09:11;;;;;;;8.65;1.20;;;;;;;7.66;90.57;101437.31;5076982;28;20320;-88
2023/11/24 04:11:36;;;;;;;10.07;1.17;;;;;;;7.62;90.85;101437.41;5076326;28;20213;-88
2023/11/24 04:14:02;;;;;;;11.95;1.70;;;;;;;7.58;92.51;101433.13;5077159;28;20035;-88
2023/11/24 04:16:29;;;;;;;12.63;1.73;;;;;;;7.54;91.93;101431.47;5075610;28;20040;-88
2023/11/24 04:18:55;;;;;;;9.00;1.58;;;;;;;7.54;92.32;101421.06;5077133;28;20322;-88
2023/11/24 04:21:20;;;;;;;11.20;1.63;;;;;;;7.58;92.16;101420.94;5077044;28;20300;-88
2023/11/24 04:23:45;;;;;;;13.05;1.85;;;;;;;7.58;92.98;101422.72;5076444;28;20102;-88
2023/11/24 04:26:11;;;;;;;8.68;1.40;;;;;;;7.54;94.47;101437.53;5077073;28;20235;-88
2023/11/24 04:28:36;;;;;;;7.45;1.23;;;;;;;7.49;94.06;101429.81;5076324;28;20599;-88
2023/11/24 04:31:01;;;;;;;10.43;1.27;;;;;;;7.46;94.27;101440.31;5076668;28;20107;-88
2023/11/24 04:33:27;;;;;;;7.32;1.75;;;;;;;7.51;93.81;101458.44;5076312;28;20339;-88
2023/11/24 04:35:55;;;;;;;7.93;1.25;;;;;;;7.45;92.91;101414.25;5075958;28;20282;-88
2023/11/24 04:38:20;;;;;;;9.97;1.20;;;;;;;7.44;92.93;101418.63;5076605;28;20040;-88
2023/11/24 04:40:46;;;;;;;9.50;1.45;;;;;;;7.40;93.73;101403.06;5075300;28;20343;-88
2023/11/24 04:43:11;;;;;;;7.00;1.45;;;;;;;7.35;92.82;101421.41;5076381;28;20226;-88
2023/11/24 04:45:39;;;;;;;6.93;1.40;;;;;;;7.33;93.08;101411.88;5075821;28;20370;-88
2023/11/24 04:48:04;;;;;;;11.68;1.25;;;;;;;7.35;93.64;101412.69;5076233;28;20038;-88
2023/11/24 04:50:30;;;;;;;9.38;1.17;;;;;;;7.34;93.97;101411.00;5075792;28;20103;-88
2023/11/24 04:52:55;;;;;;;5.38;1.13;;;;;;;7.33;94.37;101432.72;5075973;28;20094;-89
2023/11/24 04:55:20;;;;;;;10.70;1.55;;;;;;;7.37;96.02;101421.34;5075836;28;20050;-88
2023/11/24 04:57:49;;;;;;;7.32;1.40;;;;;;;7.41;96.70;101426.50;5075294;28;20029;-88
2023/11/24 05:00:16;;;;;;;;;;;;;;;7.40;97.95;101410.88;5076717;28;20387;-88
2023/11/24 05:02:41;;;;;;;7.93;1.20;;;;;;;7.36;98.60;101417.88;5075173;28;19919;-88
2023/11/24 05:05:07;;;;;;;7.18;1.23;;;;;;;7.37;98.21;101403.97;5076264;28;20036;-88
2023/11/24 05:07:34;;;;;;;9.23;1.20;;;;;;;7.38;97.69;101397.88;5075875;28;20043;-88
2023/11/24 05:10:00;;;;;;;4.55;1.40;;;;;;;7.33;96.99;101402.34;5076158;28;20351;-88
2023/11/24 05:12:25;;;;;;;8.38;1.40;;;;;;;7.34;97.41;101408.38;5076092;28;20032;-88
2023/11/24 05:14:51;;;;;;;6.75;1.00;;;;;;;7.32;98.05;101403.19;5075157;28;20043;-88
2023/11/24 05:17:17;;;;;;;5.32;1.15;;;;;;;7.23;97.97;101405.97;5075696;28;20036;-88
2023/11/24 05:19:42;;;;;;;5.40;1.20;;;;;;;7.16;98.93;101427.81;5075434;28;20049;-88
2023/11/24 05:22:07;;;;;;;7.22;1.05;;;;;;;7.09;99.52;101401.00;5076007;28;20076;-88
2023/11/24 05:24:33;;;;;;;7.00;1.17;;;;;;;7.04;98.82;101392.41;5075314;28;20048;-88
2023/11/24 05:26:58;;;;;;;11.27;1.38;;;;;;;6.97;99.48;101394.25;5075385;28;20024;-88
2023/11/24 05:29:23;;;;;;;5.22;1.05;;;;;;;6.97;100.00;101383.84;5075337;28;20263;-88
2023/11/24 05:31:50;;;;;;;7.93;1.52;;;;;;;6.97;100.00;101380.38;5074014;28;20436;-88
2023/11/24 05:34:15;;;;;;;12.68;1.73;;;;;;;6.97;100.00;101391.66;5075337;28;20054;-88
2023/11/24 05:36:44;;;;;;;8.43;1.35;;;;;;;6.92;100.00;101380.47;5073964;28;20378;-88
2023/11/24 05:39:11;;;;;;;11.68;1.70;;;;;;;6.95;100.00;101372.59;5075239;28;20025;-88
2023/11/24 05:41:37;;;;;;;12.20;1.55;;;;;;;6.97;100.00;101368.22;5053209;28;20142;-88
2023/11/24 05:44:03;;;;;;;10.27;2.13;;;;;;;6.95;97.98;101369.13;5075559;28;20043;-88
2023/11/24 05:46:28;;;;;;;9.07;1.27;;;;;;;6.95;96.13;101367.41;5074287;28;20036;-88
2023/11/24 05:48:53;;;;;;;6.55;1.15;;;;;;;6.99;94.63;101360.38;5075205;28;20052;-88
2023/11/24 05:51:19;;;;;;;10.90;1.38;;;;;;;7.03;92.51;101359.44;5074684;28;20403;-88
2023/11/24 05:53:44;;;;;;;9.52;1.17;;;;;;;7.03;91.43;101368.09;5056587;28;20078;-88
2023/11/24 05:56:09;;;;;;;9.38;1.90;;;;;;;7.07;91.33;101368.91;5075555;28;20189;-88
2023/11/24 05:58:35;;;;;;;7.95;2.38;;;;;;;7.09;91.86;101380.16;5073980;28;20048;-88
2023/11/24 06:01:01;;;;;;;10.23;1.23;;;;;;;7.09;92.71;101383.66;5074816;28;20039;-88
2023/11/24 06:03:26;;;;;;;13.43;2.17;;;;;;;7.05;93.00;101381.09;5074438;28;20040;-88
2023/11/24 06:05:53;;;;;;;13.25;1.38;;;;;;;7.01;94.55;101379.44;5074992;28;20256;-88
2023/11/24 06:08:18;;;;;;;11.80;1.67;;;;;;;6.96;93.28;101379.50;5074807;28;20021;-88
2023/11/24 06:10:43;;;;;;;7.60;1.42;;;;;;;6.95;93.10;101366.50;5074410;28;20093;-88
2023/11/24 06:13:09;;;;;;;8.35;1.63;;;;;;;6.96;92.91;101368.25;5074793;28;20236;-88
2023/11/24 06:15:34;;;;;;;10.50;1.50;;;;;;;6.96;92.67;101368.25;5074600;28;20347;-88
2023/11/24 06:17:59;;;;;;;9.95;1.77;;;;;;;6.97;92.37;101373.44;5074175;28;20043;-88
2023/11/24 06:20:25;;;;;;;8.13;1.40;;;;;;;6.99;93.88;101368.19;5075383;28;20036;-88
2023/11/24 06:22:50;;;;;;;10.25;1.98;;;;;;;6.95;95.17;101359.59;5073873;28;20039;-88
2023/11/24 06:25:16;;;;;;;14.15;2.05;;;;;;;6.94;95.80;101354.41;5074422;28;20051;-88
2023/11/24 06:27:41;;;;;;;11.55;2.13;;;;;;;6.92;95.22;101357.03;5072632;28;20263;-88
2023/11/24 06:30:07;;;;;;;14.18;1.60;;;;;;;6.93;94.84;101353.53;5056383;28;20044;-88
2023/11/24 06:32:33;;;;;;;16.27;2.15;;;;;;;7.01;93.32;101348.19;5074197;28;20052;-88
2023/11/24 06:34:59;;;;;;;9.38;2.20;;;;;;;7.00;90.78;101352.53;5062795;28;20107;-88
2023/11/24 06:37:24;;;;;;;6.15;1.50;;;;;;;7.02;89.37;101356.00;5074231;28;20270;-88
2023/11/24 06:39:50;;;;;;;9.00;1.58;;;;;;;7.03;88.84;101354.22;5073674;28;20401;-88
2023/11/24 06:42:15;;;;;;;10.40;2.00;;;;;;;7.06;88.11;101359.41;5074731;28;20040;-88
2023/11/24 06:44:41;;;;;;;17.25;1.85;;;;;;;7.09;87.09;101360.19;5073613;28;20095;-88
2023/11/24 06:47:07;;;;;;;8.25;1.80;;;;;;;7.10;88.28;101359.28;5074085;28;20032;-88
2023/11/24 06:49:32;;;;;;;14.50;1.77;;;;;;;7.15;87.27;101376.59;5074077;28;20038;-88
2023/11/24 06:52:01;;;;;;;9.63;2.00;;;;;;;7.17;88.45;101403.47;5074289;28;20051;-88
2023/11/24 06:54:29;;;;;;;10.18;1.60;;;;;;;7.02;93.12;101405.47;5074004;28;20185;-88
2023/11/24 06:56:54;;;;;;;9.10;1.30;;;;;;;6.84;95.68;101403.13;5073796;28;20036;-88
2023/11/24 06:59:22;;;;;;;6.82;1.45;;;;;;;6.72;97.42;101405.06;5072515;28;20208;-88
2023/11/24 07:01:48;;;;;;;6.50;1.17;;;;;;;6.68;98.09;101402.56;5073740;28;20032;-88
2023/11/24 07:04:13;;;;;;;5.63;0.75;;;;;;;6.65;98.16;101419.06;5074321;28;20039;-88
2023/11/24 07:06:39;;;;;;;6.97;1.20;;;;;;;6.50;98.45;101390.66;5073828;28;20296;-88
2023/11/24 07:09:05;;;;;;;3.40;0.75;;;;;;;6.50;98.18;101391.53;5073661;28;20025;-88
2023/11/24 07:11:30;;;;;;;5.35;1.10;;;;;;;6.45;99.00;101401.13;5074584;28;20024;-89
2023/11/24 07:13:56;;;;;;;3.70;0.70;;;;;;;6.40;99.20;101399.47;5073891;28;20236;-89
2023/11/24 07:16:22;;;;;;;2.00;0.60;;;;;;;6.26;98.89;101384.94;5074304;28;20036;-89
2023/11/24 07:18:48;;;;;;;2.30;0.70;;;;;;;6.25;99.54;101375.41;5073314;28;20036;-88
2023/11/24 07:21:15;;;;;;;2.58;0.70;;;;;;;6.28;99.63;101371.91;5074286;28;20040;-88
2023/11/24 07:23:41;;;;;;;5.07;0.70;;;;;;;6.30;100.00;101368.41;5073657;28;20036;-88
2023/11/24 07:26:08;;;;;;;4.80;1.08;;;;;;;6.30;100.00;101363.19;5073212;28;20056;-88
2023/11/24 07:28:38;;;;;;;7.88;0.73;;;;;;;6.33;100.00;101352.75;5073630;28;20051;-88
2023/11/24 07:31:04;;;;;;;3.88;0.75;;;;;;;6.40;100.00;101356.09;5071455;28;20087;-88
2023/11/24 07:33:32;;;;;;;8.07;1.25;;;;;;;6.38;99.86;101354.41;5075690;28;20025;-88
2023/11/24 07:35:58;;;;;;;4.88;0.73;;;;;;;6.46;99.89;101344.78;5061868;28;20048;-88
2023/11/24 07:38:25;;;;;;;5.65;0.80;;;;;;;6.50;99.62;101336.88;5087816;28;20038;-88
2023/11/24 07:40:51;;;;;;;7.07;1.00;;;;;;;6.42;97.71;101348.28;5076536;28;20212;-88
2023/11/24 07:43:17;;;;;;;6.97;0.88;;;;;;;6.41;98.28;101372.59;5078013;28;20324;-88
2023/11/24 07:45:48;;;;;;;9.93;1.38;;;;;;;6.42;99.22;101385.59;5077214;28;20320;-88
2023/11/24 07:48:13;;;;;;;5.63;1.33;;;;;;;6.43;100.00;101386.44;5077388;28;20347;-88
2023/11/24 07:50:39;;;;;;;9.32;1.35;;;;;;;6.32;100.00;101395.25;5076679;28;20095;-88
2023/11/24 07:53:04;;;;;;;14.23;1.73;;;;;;;6.24;100.00;101388.41;5078591;28;20039;-88
2023/11/24 07:55:30;;;;;;;12.38;1.50;;;;;;;6.11;100.00;101395.53;5084807;28;20024;-88
2023/11/24 07:57:55;;;;;;;12.82;1.13;;;;;;;6.11;100.00;101369.53;5086431;28;20100;-88
2023/11/24 08:00:21;;;;;;;5.63;1.30;;;;;;;6.15;100.00;101371.22;5077706;28;20066;-88
2023/11/24 08:02:46;;;;;;;8.10;1.08;;;;;;;6.14;100.00;101364.28;5075548;28;20031;-88
2023/11/24 08:05:11;;;;;;;10.13;1.20;;;;;;;6.13;100.00;101362.56;5084783;28;20032;-88
2023/11/24 08:07:37;;;;;;;8.05;1.70;;;;;;;6.13;100.00;101371.25;5076623;28;20100;-88
2023/11/24 08:10:04;;;;;;;13.13;2.50;;;;;;;6.04;100.00;101440.69;5076423;28;20028;-88
2023/11/24 08:12:29;;;;;;;9.23;1.08;;;;;;;5.77;100.00;101380.34;5076032;28;20059;-88
2023/11/24 08:14:58;;;;;;;5.10;0.70;;;;;;;5.75;100.00;101345.72;5076398;28;20040;-88
2023/11/24 08:17:23;;;;;;;5.82;0.98;;;;;;;5.73;100.00;101350.06;5076396;28;20029;-88
2023/11/24 08:19:49;;;;;;;4.35;0.80;;;;;;;5.69;100.00;101380.41;5076224;28;20043;-88
2023/11/24 08:22:14;;;;;;;7.13;0.90;;;;;;;5.61;100.00;101391.81;5076457;28;20032;-88
2023/11/24 08:24:39;;;;;;;2.45;0.63;;;;;;;5.43;100.00;101400.66;5076537;28;20059;-88
2023/11/24 08:27:05;;;;;;;3.17;0.65;;;;;;;5.33;100.00;101384.28;5076068;28;20044;-88
2023/11/24 08:29:31;;;;;;;2.78;0.50;;;;;;;5.32;100.00;101380.84;5063074;28;20064;-88
2023/11/24 08:31:57;;;;;;;5.78;0.90;;;;;;;5.45;100.00;101357.34;5076356;28;20032;-88
2023/11/24 08:34:23;;;;;;;4.90;1.00;;;;;;;5.46;100.00;101348.66;5075807;28;20343;-88
2023/11/24 08:36:48;;;;;;;7.10;1.30;;;;;;;5.53;100.00;101345.09;5075625;28;20032;-88
2023/11/24 08:39:13;;;;;;;4.45;0.63;;;;;;;5.54;100.00;101342.47;5075887;28;20067;-88
2023/11/24 08:41:47;;;;;;;5.82;1.33;;;;;;;5.56;100.00;101321.69;5075784;28;20038;-88
2023/11/24 08:44:13;;;;;;;7.22;0.80;;;;;;;5.62;100.00;101331.16;5076147;28;20032;-88
2023/11/24 08:46:39;;;;;;;3.70;0.88;;;;;;;5.64;100.00;101326.78;5075124;28;20033;-87
2023/11/24 08:49:05;;;;;;;7.40;1.05;;;;;;;5.70;100.00;101332.78;5076081;28;20079;-88
2023/11/24 08:51:31;;;;;;;7.32;1.20;;;;;;;5.76;100.00;101337.88;5069788;28;20033;-87
2023/11/24 08:53:58;;;;;;;9.13;1.70;;;;;;;5.85;100.00;101346.44;5072746;28;20040;-87
2023/11/24 08:56:24;;;;;;;12.07;1.80;;;;;;;5.88;100.00;101336.03;5057843;28;20246;-87
2023/11/24 08:58:50;;;;;;;13.75;1.92;;;;;;;5.94;100.00;101338.53;5075165;28;20064;-87
2023/11/24 09:01:15;;;;;;;11.82;1.42;;;;;;;6.02;100.00;101331.53;5075378;28;20059;-87
2023/11/24 09:03:41;;;;;;;8.82;2.03;;;;;;;6.05;99.40;101326.28;5074810;28;20366;-87
2023/11/24 09:06:06;;;;;;;10.48;1.30;;;;;;;6.09;99.34;101333.16;5073877;28;20059;-87
2023/11/24 09:08:32;;;;;;;4.20;1.15;;;;;;;6.09;97.59;101317.56;5075260;28;20044;-87
2023/11/24 09:10:57;;;;;;;12.20;1.45;;;;;;;6.16;97.73;101315.72;5075517;28;20044;-87
2023/11/24 09:13:22;;;;;;;6.95;1.42;;;;;;;6.15;96.72;101309.66;5075472;28;20161;-87
2023/11/24 09:15:49;;;;;;;7.88;1.70;;;;;;;6.18;96.26;101318.28;5074801;28;20048;-87
2023/11/24 09:18:15;;;;;;;6.55;1.02;;;;;;;6.19;96.64;101309.63;5075118;28;20036;-87
2023/11/24 09:20:40;;;;;;;11.23;1.30;;;;;;;6.23;94.76;101303.50;5073097;28;20040;-87
2023/11/24 09:23:05;;;;;;;12.48;1.95;;;;;;;6.28;94.66;101306.88;5076031;28;20100;-87
2023/11/24 09:25:32;;;;;;;7.55;1.60;;;;;;;6.32;92.80;101313.75;5074749;28;20040;-87
2023/11/24 09:27:58;;;;;;;10.13;2.05;;;;;;;6.30;90.52;101312.91;5054372;28;20103;-87
2023/11/24 09:30:24;;;;;;;9.98;1.92;;;;;;;6.29;90.54;101313.78;5057066;28;20030;-88
2023/11/24 09:32:54;;;;;;;10.80;1.75;;;;;;;6.22;85.72;101315.66;5074215;28;20040;-87
2023/11/24 09:35:20;;;;;;;10.43;1.58;;;;;;;6.24;86.64;101316.47;5074782;28;20036;-87
2023/11/24 09:37:45;;;;;;;7.55;1.83;;;;;;;6.14;86.51;101322.69;5074370;28;20058;-88
2023/11/24 09:40:16;;;;;;;17.65;1.60;;;;;;;6.14;87.03;101310.53;5056263;28;20347;-87
2023/11/24 09:42:44;;;;;;;13.57;2.03;;;;;;;6.14;88.36;101314.88;5074046;28;20063;-87
2023/11/24 09:45:15;;;;;;;8.50;1.58;;;;;;;6.19;89.36;101320.88;5056940;28;20028;-87
2023/11/24 09:47:59;;;;;;;11.63;2.17;;;;;;;6.24;89.54;101313.00;5055663;28;20060;-87
2023/11/24 09:50:26;;;;;;;13.68;1.63;;;;;;;6.31;89.57;101322.44;5066126;28;20286;-87
2023/11/24 09:52:56;;;;;;;11.95;2.30;;;;;;;6.41;89.89;101312.75;5073872;28;20031;-87
2023/11/24 09:55:23;;;;;;;13.52;2.50;;;;;;;6.46;89.65;101316.16;5074688;28;20028;-87
2023/11/24 09:57:50;;;;;;;7.88;1.60;;;;;;;6.51;89.69;101314.31;5074102;28;20079;-87
2023/11/24 10:00:17;;;;;;;15.40;2.10;;;;;;;6.60;86.94;101324.56;5074476;28;20037;-88
2023/11/24 10:02:45;;;;;;;12.13;1.60;;;;;;;6.66;85.14;101315.81;5071051;28;20235;-87
2023/11/24 10:05:21;;;;;;;11.65;1.90;;;;;;;6.78;81.26;101317.34;5074553;28;20091;-88
2023/11/24 10:07:50;;;;;;;12.98;1.58;;;;;;;6.83;81.54;101308.56;5073594;28;20147;-87
2023/11/24 10:10:22;;;;;;;7.40;1.30;;;;;;;6.89;81.30;101308.47;5074251;28;20036;-88
2023/11/24 10:12:47;;;;;;;13.10;2.95;;;;;;;6.92;84.18;101354.41;5074019;28;20399;-88
2023/11/24 10:15:14;;;;;;;10.50;2.08;;;;;;;6.73;85.13;101320.00;5073681;28;20074;-87
2023/11/24 10:17:42;;;;;;;16.38;1.85;;;;;;;6.70;86.56;101314.88;5055290;28;20032;-87
2023/11/24 10:20:11;;;;;;;12.30;2.30;;;;;;;6.68;88.32;101334.88;5074088;28;20044;-88
2023/11/24 10:22:36;;;;;;;;;;;;;;;6.69;89.51;101349.59;5073886;28;20048;-87
2023/11/24 10:25:18;;;;;;;14.05;1.90;;;;;;;6.60;91.10;101342.78;5074012;28;19943;-87
2023/11/24 10:27:43;;;;;;;4.68;1.40;;;;;;;6.38;89.35;101326.66;5073933;28;20087;-87
2023/11/24 10:30:11;;;;;;;13.25;1.60;;;;;;;6.34;88.61;101323.25;5080452;28;20032;-87
2023/11/24 10:32:37;;;;;;;7.87;1.23;;;;;;;6.21;88.86;101339.06;5080843;28;20036;-87
2023/11/24 10:35:03;;;;;;;5.57;1.10;;;;;;;6.17;87.26;101320.06;5063165;28;20402;-87
2023/11/24 10:37:29;;;;;;;6.65;0.85;;;;;;;6.16;88.06;101323.53;5072532;28;20032;-87
2023/11/24 10:39:59;;;;;;;7.63;1.10;;;;;;;6.11;88.34;101343.53;5073038;28;20466;-87
2023/11/24 10:42:25;;;;;;;7.32;0.88;;;;;;;6.05;90.19;101330.63;5060219;28;20052;-87
2023/11/24 10:44:59;;;;;;;7.60;1.02;;;;;;;6.05;91.94;101315.88;5071020;28;20051;-87
2023/11/24 10:47:34;;;;;;;5.15;0.90;;;;;;;5.96;91.93;101303.84;5071679;28;20332;-87
2023/11/24 10:50:12;;;;;;;4.10;0.80;;;;;;;6.03;90.79;101290.78;5065350;28;20032;-87
2023/11/24 10:53:06;;;;;;;3.30;0.80;;;;;;;6.06;91.64;101286.41;5078278;28;20354;-87
2023/11/24 10:55:34;;;;;;;5.38;0.90;;;;;;;6.07;90.25;101287.25;5074568;28;20035;-87
2023/11/24 10:58:01;;;;;;;9.00;1.17;;;;;;;6.12;89.94;101283.69;5073063;28;20055;-86
2023/11/24 11:00:30;;;;;;;7.45;1.08;;;;;;;6.15;89.82;101283.66;5067488;28;20063;-87
2023/11/24 11:02:57;;;;;;;10.38;1.27;;;;;;;6.17;91.18;101285.34;5076110;28;20032;-87
2023/11/24 11:05:34;;;;;;;10.05;2.10;;;;;;;6.19;91.13;101281.88;5074489;28;20032;-87
2023/11/24 11:08:17;;;;;;;12.60;1.58;;;;;;;6.21;91.28;101267.09;5079655;28;20023;-87
2023/11/24 11:10:58;;;;;;;9.55;1.20;;;;;;;6.25;92.04;101265.31;5071195;28;20266;-87
2023/11/24 11:13:26;;;;;;;14.20;2.28;;;;;;;6.29;92.36;101274.78;5080848;28;20415;-87
2023/11/24 11:15:53;;;;;;;13.48;1.92;;;;;;;6.27;90.89;101269.59;5081217;28;20083;-87
2023/11/24 11:18:25;;;;;;;15.80;2.17;;;;;;;6.30;90.53;101266.94;5066713;28;20028;-87
2023/11/24 11:20:51;;;;;;;12.70;1.58;;;;;;;6.31;89.24;101271.28;5076364;28;20059;-87
2023/11/24 11:23:17;;;;;;;9.25;1.73;;;;;;;6.39;85.73;101265.09;5077791;28;20051;-87
2023/11/24 11:25:46;;;;;;;13.27;1.30;;;;;;;6.44;85.35;101271.94;5076992;28;20032;-87